Time;durP1;ratioP1;P1;durP2;ratioP2;P2;SDS_P1;SDS_P2;PMS_P1;PMS_P2;Temp;Humidity;BMP_temperature;BMP_pressure;BME280_temperature;BME280_humidity;BME280_pressure;Samples;Min_cycle;Max_cycle;Signal;HPM_P1;HPM_P2
2021/12/17 05:31:06;;;;;;;;;47.50;40.00;;;;;10.54;66.10;103278.69;5556677;23;46800;-53
2021/12/17 05:33:32;;;;;;;;;47.25;40.50;;;;;10.55;66.27;103280.44;4941701;28;45483;-51
2021/12/17 05:35:57;;;;;;;;;51.00;41.00;;;;;10.60;66.40;103280.41;4941579;28;45240;-50
2021/12/17 05:38:24;;;;;;;;;47.25;41.00;;;;;10.61;65.84;103279.53;4941319;28;45505;-53
2021/12/17 05:40:50;;;;;;;;;47.50;38.75;;;;;10.60;66.03;103283.09;4941355;28;45368;-52
2021/12/17 05:43:16;;;;;;;;;45.25;35.00;;;;;10.57;65.95;103275.94;4940871;28;45390;-52
2021/12/17 05:48:22;;;;;;;;;42.00;32.00;;;;;10.63;66.12;103277.72;4941164;28;45248;-52
2021/12/17 05:50:50;;;;;;;;;39.00;35.00;;;;;10.60;65.99;103283.09;4941807;28;45614;-51
2021/12/17 05:53:17;;;;;;;;;40.25;31.50;;;;;10.65;66.09;103280.38;4941553;28;45395;-52
2021/12/17 05:55:42;;;;;;;;;38.00;34.50;;;;;10.61;66.28;103268.78;4941778;28;45267;-53
2021/12/17 05:58:08;;;;;;;;;34.00;32.25;;;;;10.62;66.53;103267.91;4941127;28;45474;-55
2021/12/17 06:00:35;;;;;;;;;38.75;30.00;;;;;10.60;66.46;103259.84;4941146;28;45410;-53
2021/12/17 06:03:02;;;;;;;;;38.50;30.25;;;;;10.63;66.67;103272.38;4941374;28;45301;-53
2021/12/17 06:05:28;;;;;;;;;33.25;29.00;;;;;10.59;66.60;103262.53;4941694;28;45312;-48
2021/12/17 06:07:54;;;;;;;;;29.00;28.00;;;;;10.60;66.86;103267.91;4941429;28;45395;-53
2021/12/17 06:10:19;;;;;;;;;29.25;24.50;;;;;10.67;66.58;103266.06;4941416;28;45333;-53
2021/12/17 06:12:44;;;;;;;;;38.50;28.25;;;;;10.63;66.92;103252.69;4941254;28;45447;-49
2021/12/17 06:15:13;;;;;;;;;29.25;24.75;;;;;10.68;66.87;103273.22;4941299;28;45708;-50
2021/12/17 06:17:40;;;;;;;;;35.50;28.25;;;;;10.71;66.76;103267.84;4940965;28;45467;-52
2021/12/17 06:20:07;;;;;;;;;28.00;26.50;;;;;10.69;67.05;103282.16;4941061;28;46714;-50
2021/12/17 06:22:33;;;;;;;;;27.00;22.75;;;;;10.67;67.02;103265.16;4940888;28;45221;-51
2021/12/17 06:24:58;;;;;;;;;31.50;26.00;;;;;10.67;67.47;103276.78;4941167;28;45250;-51
2021/12/17 06:27:24;;;;;;;;;28.50;25.75;;;;;10.67;67.33;103279.47;4940512;28;50438;-52
2021/12/17 06:29:50;;;;;;;;;33.75;24.50;;;;;10.70;67.60;103270.53;4940711;28;46057;-52
2021/12/17 06:32:16;;;;;;;;;30.00;26.25;;;;;10.71;67.41;103272.31;4940738;28;45543;-52
2021/12/17 06:34:42;;;;;;;;;33.50;26.00;;;;;10.73;67.66;103278.53;4941122;28;45515;-51
2021/12/17 06:37:08;;;;;;;;;25.75;24.25;;;;;10.73;67.29;103273.19;4940834;28;45347;-50
2021/12/17 06:39:34;;;;;;;;;22.25;21.50;;;;;10.73;67.46;103276.75;4940912;28;46276;-54
2021/12/17 06:42:00;;;;;;;;;28.50;24.25;;;;;10.73;67.65;103278.53;4941177;28;45272;-50
2021/12/17 06:44:26;;;;;;;;;22.00;22.00;;;;;10.69;67.67;103269.63;4940935;28;45245;-53
2021/12/17 06:47:11;;;;;;;;;33.25;29.25;;;;;10.74;67.48;103274.97;4940647;28;45412;-54
2021/12/17 06:55:12;;;;;;;;;31.50;26.25;;;;;10.68;67.54;103269.66;4940859;28;45301;-51
2021/12/17 07:10:55;;;;;;;;;31.25;25.00;;;;;10.81;67.98;103293.69;4937513;28;45635;-53
2021/12/17 07:21:57;;;;;;;;;27.00;22.50;;;;;10.88;68.10;103274.00;4938629;28;45803;-53
2021/12/17 07:35:23;;;;;;;;;28.00;24.25;;;;;10.88;68.04;103283.84;4933728;28;45706;-54
2021/12/17 07:40:05;;;;;;;;;29.25;26.00;;;;;10.95;68.00;103302.56;4932575;28;45610;-49
2021/12/17 07:42:31;;;;;;;;;31.25;24.25;;;;;10.96;67.99;103301.66;4935943;28;46358;-53
2021/12/17 07:44:56;;;;;;;;;33.75;25.00;;;;;10.94;68.26;103300.78;4936015;28;45714;-50
2021/12/17 07:47:22;;;;;;;;;28.00;21.00;;;;;10.96;68.15;103311.50;4938087;28;45368;-53
2021/12/17 07:49:47;;;;;;;;;33.00;26.00;;;;;10.93;68.05;103304.38;4937239;28;45402;-52
2021/12/17 07:52:12;;;;;;;;;33.00;25.00;;;;;10.86;68.12;103281.16;4936862;28;45650;-53
2021/12/17 07:54:38;;;;;;;;;26.75;23.50;;;;;10.95;67.84;103296.31;4937494;28;45559;-51
2021/12/17 07:57:04;;;;;;;;;28.00;22.50;;;;;11.03;67.91;103302.50;4938306;28;45223;-53
2021/12/17 07:59:29;;;;;;;;;26.50;22.75;;;;;11.04;68.08;103298.03;4936782;28;45845;-52
2021/12/17 08:01:54;;;;;;;;;28.75;25.00;;;;;11.04;68.04;103306.97;4937764;28;45662;-52
2021/12/17 08:04:21;;;;;;;;;29.25;25.50;;;;;11.06;67.85;103298.94;4937661;28;45513;-52
2021/12/17 08:06:46;;;;;;;;;28.25;26.25;;;;;11.04;68.08;103296.25;4937495;28;45650;-51
2021/12/17 08:09:12;;;;;;;;;33.50;26.50;;;;;10.98;67.71;103270.31;4937494;28;45349;-50
2021/12/17 08:11:39;;;;;;;;;25.25;21.50;;;;;11.08;67.61;103291.72;4938375;28;46757;-52
2021/12/17 08:14:13;;;;;;;;;25.50;21.25;;;;;11.06;67.74;103291.72;4940818;28;45340;-50
2021/12/17 08:16:57;;;;;;;;;32.00;21.75;;;;;10.91;68.19;103273.94;4940476;28;45361;-53
2021/12/17 08:24:56;;;;;;;;;25.25;23.00;;;;;11.07;67.82;103309.63;4940898;28;45382;-52
2021/12/17 08:32:33;;;;;;;;;31.50;26.50;;;;;11.02;68.39;103305.19;4939587;28;45377;-50
2021/12/17 08:34:58;;;;;;;;;27.75;27.00;;;;;11.07;67.99;103315.00;4940763;28;45502;-53
2021/12/17 08:37:23;;;;;;;;;25.50;24.00;;;;;11.10;68.16;103323.03;4940933;28;45733;-53
2021/12/17 08:39:49;;;;;;;;;32.00;26.25;;;;;11.00;68.34;103305.19;4940879;28;45368;-53
2021/12/17 08:42:14;;;;;;;;;31.75;25.25;;;;;10.97;67.86;103291.81;4938940;28;45394;-54
2021/12/17 08:44:39;;;;;;;;;32.00;28.25;;;;;11.08;68.29;103323.94;4928192;28;45316;-52
2021/12/17 08:47:05;;;;;;;;;25.50;21.00;;;;;11.06;68.13;103318.56;4938891;28;45453;-51
2021/12/17 08:49:31;;;;;;;;;27.75;25.50;;;;;11.04;68.30;103311.47;4940733;28;46233;-53
2021/12/17 08:51:56;;;;;;;;;29.25;24.75;;;;;11.03;68.37;103315.03;4940737;28;45705;-52
2021/12/17 08:54:21;;;;;;;;;29.50;24.75;;;;;11.05;68.45;103313.25;4940364;28;45307;-52
2021/12/17 08:56:49;;;;;;;;;25.25;22.75;;;;;11.06;68.38;103309.66;4939736;28;45258;-53
2021/12/17 08:59:16;;;;;;;;;35.25;28.25;;;;;11.08;68.31;103307.84;4940060;28;45825;-53
2021/12/17 09:01:43;;;;;;;;;28.25;25.50;;;;;11.06;68.74;103305.16;4938653;28;47214;-53
2021/12/17 09:04:08;;;;;;;;;25.75;21.75;;;;;10.98;68.52;103290.91;4940540;28;45376;-54
2021/12/17 09:06:33;;;;;;;;;36.50;29.00;;;;;11.10;68.46;103312.31;4940307;28;47398;-51
2021/12/17 09:08:59;;;;;;;;;33.25;28.25;;;;;11.09;68.41;103320.34;4940104;28;45495;-53
2021/12/17 09:11:27;;;;;;;;;30.50;25.50;;;;;11.03;68.72;103315.94;4940199;28;45776;-52
2021/12/17 09:13:56;;;;;;;;;27.25;23.75;;;;;11.02;68.62;103321.31;4922654;28;45995;-49
2021/12/17 09:16:21;;;;;;;;;26.25;23.00;;;;;11.02;68.56;103330.25;4919708;28;45694;-53
2021/12/17 09:18:52;;;;;;;;;31.25;26.75;;;;;11.02;68.62;103330.25;4939751;28;45572;-53
2021/12/17 09:21:18;;;;;;;;;30.00;26.25;;;;;10.99;68.34;103328.47;4940329;28;45158;-50
2021/12/17 09:23:44;;;;;;;;;29.50;25.25;;;;;10.95;69.26;103332.09;4923112;28;45501;-51
2021/12/17 09:26:11;;;;;;;;;29.50;29.00;;;;;10.90;69.10;103327.63;4941251;28;45731;-53
2021/12/17 09:28:37;;;;;;;;;30.00;27.00;;;;;10.94;68.70;103334.78;4940212;28;45800;-53
2021/12/17 09:31:05;;;;;;;;;32.00;25.00;;;;;10.85;68.91;103324.09;4939106;28;45465;-51
2021/12/17 09:33:30;;;;;;;;;30.25;28.25;;;;;10.92;69.31;103334.78;4939917;28;45305;-51
2021/12/17 09:35:56;;;;;;;;;25.75;21.00;;;;;10.95;69.21;103350.88;4940064;28;45424;-52
2021/12/17 09:38:21;;;;;;;;;34.50;30.00;;;;;10.90;69.14;103344.63;4940051;28;45428;-51
2021/12/17 09:40:47;;;;;;;;;28.50;21.50;;;;;10.90;69.20;103354.47;4939994;28;45340;-50
2021/12/17 09:43:14;;;;;;;;;28.25;23.00;;;;;10.85;69.23;103350.94;4939993;28;45466;-53
2021/12/17 09:45:40;;;;;;;;;27.50;26.50;;;;;10.85;69.40;103358.97;4939731;28;45363;-52
2021/12/17 09:48:05;;;;;;;;;24.00;23.25;;;;;10.85;69.32;103353.63;4939691;28;45481;-53
2021/12/17 09:50:30;;;;;;;;;23.75;19.00;;;;;10.82;69.88;103365.25;4937491;28;46702;-51
2021/12/17 09:52:56;;;;;;;;;31.75;25.75;;;;;10.82;69.82;103361.66;4939232;28;45473;-54
2021/12/17 09:55:22;;;;;;;;;27.50;25.50;;;;;10.83;69.91;103363.47;4940145;28;45389;-53
2021/12/17 09:57:48;;;;;;;;;28.50;23.75;;;;;10.80;69.49;103361.66;4938706;28;45403;-53
2021/12/17 10:00:21;;;;;;;;;27.50;27.50;;;;;10.90;69.76;103363.41;4939470;28;45808;-53
2021/12/17 10:02:48;;;;;;;;;38.00;27.50;;;;;10.67;69.59;103319.72;4939148;28;45478;-52
2021/12/17 10:05:17;;;;;;;;;29.25;24.75;;;;;10.94;69.44;103358.94;4939148;28;45428;-49
2021/12/17 10:07:44;;;;;;;;;34.25;29.75;;;;;10.94;69.18;103367.88;4938116;28;45286;-50
2021/12/17 10:10:13;;;;;;;;;30.00;27.00;;;;;10.95;69.35;103363.41;4939913;28;45339;-51
2021/12/17 10:12:39;;;;;;;;;28.75;25.50;;;;;10.97;69.46;103370.53;4939136;28;45523;-52
2021/12/17 10:15:15;;;;;;;;;31.50;28.00;;;;;11.00;69.61;103358.88;4939615;28;45323;-51
2021/12/17 10:17:59;;;;;;;;;39.25;29.50;;;;;10.98;69.26;103349.94;4939252;28;45589;-54
2021/12/17 10:20:26;;;;;;;;;29.50;24.00;;;;;10.99;69.18;103354.41;4939309;28;46291;-52
2021/12/17 10:23:06;;;;;;;;;37.25;29.25;;;;;10.98;69.30;103347.25;4937034;28;45581;-54
2021/12/17 10:25:34;;;;;;;;;28.75;22.25;;;;;11.00;68.97;103341.00;4939687;28;45447;-53
2021/12/17 10:28:03;;;;;;;;;32.00;24.50;;;;;10.99;69.23;103339.22;4939743;28;45902;-52
2021/12/17 10:30:31;;;;;;;;;32.00;29.25;;;;;10.98;69.42;103323.09;4938666;28;45832;-54
2021/12/17 10:32:59;;;;;;;;;30.75;29.25;;;;;11.02;68.92;103324.88;4938834;28;45316;-52
2021/12/17 10:35:26;;;;;;;;;37.00;33.00;;;;;11.04;69.06;103322.19;4937063;28;45439;-51
2021/12/17 10:38:04;;;;;;;;;37.00;34.50;;;;;11.03;69.40;103329.34;4938512;28;45410;-51
2021/12/17 10:40:39;;;;;;;;;28.00;20.75;;;;;11.06;69.13;103315.88;4939444;28;45634;-53
2021/12/17 10:43:22;;;;;;;;;27.00;27.00;;;;;11.09;68.93;103315.88;4938898;28;45443;-52
2021/12/17 10:46:28;;;;;;;;;36.50;27.25;;;;;11.13;69.21;103317.66;4938603;28;45369;-51
2021/12/17 10:54:16;;;;;;;;;34.25;26.75;;;;;11.25;68.76;103298.75;4938351;28;45426;-54
2021/12/17 10:56:52;;;;;;;;;33.75;27.75;;;;;11.32;68.28;103291.53;4938623;28;45702;-53
2021/12/17 10:59:32;;;;;;;;;30.25;26.50;;;;;11.32;68.51;103288.84;4936263;28;45767;-53
2021/12/17 11:02:04;;;;;;;;;29.75;24.50;;;;;11.35;68.17;103281.66;4938514;28;45311;-51
2021/12/17 11:04:31;;;;;;;;;38.00;30.00;;;;;11.32;68.29;103270.03;4938673;28;45439;-52
2021/12/17 11:07:02;;;;;;;;;37.00;29.25;;;;;11.36;68.16;103280.75;4938691;28;45402;-50
2021/12/17 11:09:50;;;;;;;;;33.00;24.50;;;;;11.38;68.22;103275.38;4938321;28;45426;-52
2021/12/17 11:12:41;;;;;;;;;31.00;27.25;;;;;11.40;67.50;103267.31;4936873;28;45399;-52
2021/12/17 11:15:18;;;;;;;;;34.75;26.75;;;;;11.44;67.53;103269.06;4936896;28;46469;-54
2021/12/17 11:17:45;;;;;;;;;25.75;22.00;;;;;11.29;67.17;103238.75;4937063;28;45509;-54
2021/12/17 11:20:20;;;;;;;;;32.25;25.00;;;;;11.43;66.87;103262.78;4938279;28;45365;-49
2021/12/17 11:22:48;;;;;;;;;27.50;25.00;;;;;11.43;67.05;103259.22;4929991;28;45617;-55
2021/12/17 11:25:14;;;;;;;;;30.00;29.00;;;;;11.32;66.96;103243.19;4938791;28;45324;-53
2021/12/17 11:27:40;;;;;;;;;33.50;31.50;;;;;11.27;66.87;103237.88;4939406;28;45482;-52
2021/12/17 11:30:11;;;;;;;;;31.75;25.75;;;;;11.33;67.21;103231.53;4939376;28;45444;-53
2021/12/17 11:32:37;;;;;;;;;30.50;26.50;;;;;11.41;66.39;103237.72;4939591;28;46491;-52
2021/12/17 11:35:04;;;;;;;;;34.25;27.25;;;;;11.50;66.16;103242.13;4940104;28;45360;-53
2021/12/17 11:37:31;;;;;;;;;29.75;26.50;;;;;11.38;65.09;103232.41;4940531;28;45237;-49
2021/12/17 11:40:00;;;;;;;;;35.25;27.50;;;;;11.45;65.34;103231.44;4939585;28;45526;-53
2021/12/17 11:43:02;;;;;;;;;32.25;24.75;;;;;11.36;64.42;103216.31;4921948;28;46252;-53
2021/12/17 11:45:29;;;;;;;;;34.75;31.25;;;;;11.50;65.17;103232.28;4928066;28;45411;-51
2021/12/17 11:48:18;;;;;;;;;34.00;28.00;;;;;11.56;64.94;103245.66;4942609;28;45337;-51
2021/12/17 11:50:45;;;;;;;;;33.00;23.50;;;;;11.42;64.98;103220.72;4943391;28;46312;-51
2021/12/17 11:53:17;;;;;;;;;32.25;27.50;;;;;11.57;64.61;103233.13;4942687;28;45585;-53
2021/12/17 11:55:46;;;;;;;;;26.75;25.00;;;;;11.56;64.65;103237.59;4926154;28;45455;-51
2021/12/17 11:58:15;;;;;;;;;35.75;29.25;;;;;11.59;64.26;103224.13;4937139;28;45516;-53
2021/12/17 12:00:40;;;;;;;;;29.25;24.50;;;;;11.61;64.68;103221.41;4940004;28;45424;-53
2021/12/17 12:03:15;;;;;;;;;32.50;29.50;;;;;11.64;64.59;103224.09;4940683;28;45419;-52
2021/12/17 12:05:44;;;;;;;;;31.25;30.25;;;;;11.61;64.68;103205.31;4935391;28;45611;-52
2021/12/17 12:08:25;;;;;;;;;31.50;26.00;;;;;11.73;64.11;103224.88;4941696;28;45661;-50
2021/12/17 12:11:11;;;;;;;;;31.25;27.25;;;;;11.79;64.14;103232.00;4940889;28;45514;-53
2021/12/17 12:13:46;;;;;;;;;35.75;29.25;;;;;11.75;63.92;103220.38;4940608;28;46895;-51
2021/12/17 12:16:16;;;;;;;;;30.50;24.50;;;;;11.77;64.08;103212.31;4927872;28;45251;-54
2021/12/17 12:18:50;;;;;;;;;34.50;28.50;;;;;11.80;64.43;103200.66;4941025;28;45410;-51
2021/12/17 12:21:18;;;;;;;;;35.25;31.75;;;;;11.84;64.45;103207.75;4941382;28;45366;-53
2021/12/17 12:23:50;;;;;;;;;40.25;31.75;;;;;11.85;64.62;103207.75;4939307;28;46295;-52
2021/12/17 12:26:24;;;;;;;;;36.00;28.25;;;;;11.94;64.64;103201.34;4939148;28;45368;-52
2021/12/17 12:28:54;;;;;;;;;29.00;25.50;;;;;11.99;64.17;103197.69;4939244;28;45461;-53
2021/12/17 12:31:22;;;;;;;;;26.75;26.75;;;;;11.93;63.39;103183.44;4939633;28;45661;-53
2021/12/17 12:34:18;;;;;;;;;38.50;31.00;;;;;12.01;63.72;103198.56;4939673;28;46288;-53
2021/12/17 12:36:54;;;;;;;;;28.00;26.00;;;;;12.08;63.22;103192.19;4938873;28;45587;-53
2021/12/17 12:39:22;;;;;;;;;39.75;28.75;;;;;12.13;63.10;103197.53;4940391;28;45689;-54
2021/12/17 12:41:55;;;;;;;;;31.25;25.50;;;;;12.09;62.89;103185.03;4940797;28;45329;-51
2021/12/17 12:44:20;;;;;;;;;23.75;23.00;;;;;12.16;61.69;103185.84;4939975;28;46287;-53
2021/12/17 12:46:56;;;;;;;;;31.75;26.50;;;;;12.13;62.57;103170.66;4940684;28;45463;-53
2021/12/17 12:49:46;;;;;;;;;24.00;23.00;;;;;12.22;61.50;103177.69;4940619;28;45548;-52
2021/12/17 12:52:32;;;;;;;;;36.00;27.25;;;;;12.16;62.19;103167.94;4930642;28;45897;-52
2021/12/17 12:55:22;;;;;;;;;28.25;25.50;;;;;12.16;62.20;103176.00;4939962;28;46975;-51
2021/12/17 12:57:54;;;;;;;;;27.50;26.50;;;;;12.20;62.32;103175.03;4938126;28;45413;-53
2021/12/17 13:00:24;;;;;;;;;26.50;23.25;;;;;12.24;62.05;103173.19;4938285;28;45656;-54
2021/12/17 13:03:14;;;;;;;;;30.25;28.50;;;;;12.25;61.46;103167.75;4939869;28;45523;-53
2021/12/17 13:05:42;;;;;;;;;22.75;22.00;;;;;12.29;61.61;103163.25;4939676;28;46243;-53
2021/12/17 13:08:08;;;;;;;;;30.50;27.25;;;;;12.27;60.68;103157.00;4927880;28;45694;-50
2021/12/17 13:10:54;;;;;;;;;32.25;24.75;;;;;12.28;60.36;103161.47;4936326;28;45349;-50
2021/12/17 13:13:34;;;;;;;;;27.25;23.25;;;;;12.34;60.81;103164.06;4939356;28;45947;-52
2021/12/17 13:23:50;;;;;;;;;26.75;22.50;;;;;12.59;59.53;103149.31;4938495;28;45411;-52
2021/12/17 13:26:17;;;;;;;;;28.25;22.00;;;;;12.64;59.36;103149.25;4940207;28;45443;-52
2021/12/17 13:28:53;;;;;;;;;23.25;20.75;;;;;12.65;59.41;103170.78;4938592;28;45367;-49
2021/12/17 13:31:56;;;;;;;;;27.00;21.50;;;;;12.61;58.59;103163.63;4930322;28;45211;-53
2021/12/17 13:34:29;;;;;;;;;21.25;18.75;;;;;12.56;59.40;103153.88;4929753;28;45592;-51
2021/12/17 13:36:59;;;;;;;;;26.00;19.25;;;;;12.50;58.71;103163.78;4937774;28;46270;-51
2021/12/17 13:39:31;;;;;;;;;22.75;19.00;;;;;12.44;58.89;103174.66;4939650;28;45297;-52
2021/12/17 13:41:57;;;;;;;;;19.00;15.75;;;;;12.45;60.21;103179.13;4940469;28;45269;-52
2021/12/17 13:44:36;;;;;;;;;17.50;15.75;;;;;12.45;59.35;103175.56;4939626;28;45587;-53
2021/12/17 13:47:08;;;;;;;;;24.00;19.25;;;;;12.42;59.05;103171.09;4927092;28;45597;-51
2021/12/17 13:49:35;;;;;;;;;22.00;21.00;;;;;12.44;59.28;103163.91;4939274;28;45407;-52
2021/12/17 13:52:01;;;;;;;;;25.25;22.25;;;;;12.45;59.22;103154.03;4939981;28;45415;-51
2021/12/17 13:54:26;;;;;;;;;16.25;15.25;;;;;12.41;59.57;103152.31;4939504;28;45505;-49
2021/12/17 13:56:57;;;;;;;;;26.50;21.25;;;;;12.44;59.52;103144.19;4939633;28;46215;-53
2021/12/17 13:59:34;;;;;;;;;24.50;20.50;;;;;12.47;59.64;103130.69;4938495;28;45363;-50
2021/12/17 14:02:16;;;;;;;;;27.50;23.00;;;;;12.54;59.22;103132.38;4940194;28;45559;-52
2021/12/17 14:04:56;;;;;;;;;27.00;19.25;;;;;12.58;59.24;103144.88;4940175;28;45287;-54
2021/12/17 14:07:28;;;;;;;;;23.50;20.75;;;;;12.66;59.57;103142.06;4939211;28;46486;-53
2021/12/17 14:10:02;;;;;;;;;26.25;22.75;;;;;12.65;59.73;103132.19;4939368;28;45790;-51
2021/12/17 14:12:31;;;;;;;;;24.50;21.50;;;;;12.68;59.16;103129.44;4939766;28;45275;-53
2021/12/17 14:14:59;;;;;;;;;28.00;22.75;;;;;12.74;59.32;103141.00;4938782;28;45871;-50
2021/12/17 14:17:31;;;;;;;;;29.25;20.25;;;;;12.75;59.12;103133.81;4939457;28;45510;-51
2021/12/17 14:20:04;;;;;;;;;27.50;22.25;;;;;12.76;58.77;103143.69;4939158;28;45427;-53
2021/12/17 14:22:34;;;;;;;;;24.75;24.00;;;;;12.51;59.29;103101.00;4939463;28;45686;-52
2021/12/17 14:25:00;;;;;;;;;31.75;21.50;;;;;12.98;58.15;103142.38;4939092;28;45524;-55
2021/12/17 14:27:45;;;;;;;;;21.00;17.50;;;;;13.35;57.03;103149.84;4936023;28;46114;-54
2021/12/17 14:30:11;;;;;;;;;21.25;16.00;;;;;13.48;55.66;103128.00;4938644;28;45470;-54
2021/12/17 14:32:41;;;;;;;;;21.75;19.00;;;;;13.57;55.66;103119.72;4939486;28;45415;-55
2021/12/17 14:35:07;;;;;;;;;12.75;9.50;;;;;13.67;55.17;103128.50;4938636;28;45506;-54
2021/12/17 14:38:05;;;;;;;;;21.75;19.00;;;;;13.59;55.07;103136.75;4938960;28;45410;-51
2021/12/17 14:40:41;;;;;;;;;20.25;19.25;;;;;13.50;55.61;103126.16;4895585;28;45828;-51
2021/12/17 14:43:52;;;;;;;;;24.75;16.00;;;;;12.96;55.91;103066.13;4938405;28;45336;-52
2021/12/17 14:46:23;;;;;;;;;20.00;17.75;;;;;13.15;55.88;103126.84;4933776;28;46211;-52
2021/12/17 15:02:51;;;;;;;;;16.25;15.75;;;;;12.39;58.48;103111.09;4938966;28;45352;-51
2021/12/17 15:05:21;;;;;;;;;16.25;14.50;;;;;12.28;58.93;103107.66;4938766;28;45351;-54
2021/12/17 15:07:46;;;;;;;;;15.25;13.25;;;;;12.23;58.77;103123.00;4938988;28;45478;-51
2021/12/17 15:10:14;;;;;;;;;18.50;15.25;;;;;12.16;59.56;103118.63;4937714;28;45474;-52
2021/12/17 15:12:40;;;;;;;;;17.00;15.75;;;;;12.00;59.60;103104.50;4938580;28;45474;-52
2021/12/17 15:15:16;;;;;;;;;18.00;16.75;;;;;12.10;60.19;103122.28;4938205;28;45667;-51
2021/12/17 15:17:43;;;;;;;;;23.25;17.25;;;;;11.86;60.59;103096.63;4938713;28;45656;-62
2021/12/17 15:20:10;;;;;;;;;23.25;18.00;;;;;12.02;60.87;103129.56;4920320;28;47557;-58
2021/12/17 15:22:37;;;;;;;;;24.75;22.00;;;;;11.96;61.35;103127.84;4941154;28;45413;-55
2021/12/17 15:25:05;;;;;;;;;21.50;18.00;;;;;11.95;61.21;103133.25;4922801;28;45436;-56
2021/12/17 15:27:33;;;;;;;;;21.00;19.00;;;;;11.94;61.83;103135.03;4941834;28;45495;-57
2021/12/17 15:29:59;;;;;;;;;19.75;17.50;;;;;11.93;62.05;103137.75;4940005;28;46076;-58
2021/12/17 15:32:24;;;;;;;;;20.25;17.75;;;;;11.85;61.93;103145.03;4928999;28;45660;-56
2021/12/17 15:34:52;;;;;;;;;17.50;15.25;;;;;11.82;62.05;103151.34;4941444;28;45531;-58
2021/12/17 15:37:17;;;;;;;;;15.25;12.50;;;;;11.75;62.32;103133.50;4941502;28;45655;-58
2021/12/17 15:39:42;;;;;;;;;22.00;17.75;;;;;11.70;62.59;103138.91;4941328;28;46092;-58
2021/12/17 15:42:10;;;;;;;;;21.25;16.25;;;;;11.60;61.81;103115.75;4941354;28;45722;-59
2021/12/17 15:44:35;;;;;;;;;13.50;12.50;;;;;11.70;62.32;103148.78;4941060;28;45743;-57
2021/12/17 15:47:00;;;;;;;;;18.50;16.75;;;;;11.67;61.99;103140.72;4940949;28;45413;-56
2021/12/17 15:49:26;;;;;;;;;20.00;15.00;;;;;11.65;62.17;103138.06;4941612;28;46754;-58
2021/12/17 15:51:51;;;;;;;;;19.00;15.75;;;;;11.67;62.51;103138.03;4941143;28;45434;-57
2021/12/17 15:54:17;;;;;;;;;16.25;14.25;;;;;11.61;62.41;103136.34;4941620;28;45288;-58
2021/12/17 15:56:46;;;;;;;;;22.00;17.75;;;;;11.54;62.53;103133.75;4941396;28;45229;-58
2021/12/17 15:59:12;;;;;;;;;15.75;15.75;;;;;11.51;62.55;103145.41;4941077;28;47073;-54
2021/12/17 16:01:37;;;;;;;;;15.50;13.75;;;;;11.48;63.23;103140.09;4941217;28;45821;-57
2021/12/17 16:04:04;;;;;;;;;12.75;12.75;;;;;11.49;62.88;103140.94;4940979;28;45432;-57
2021/12/17 16:06:29;;;;;;;;;15.00;13.25;;;;;11.44;62.77;103135.63;4940970;28;45543;-58
2021/12/17 16:08:58;;;;;;;;;19.25;13.75;;;;;11.41;63.21;103143.72;4941182;28;45334;-54
2021/12/17 16:16:54;;;;;;;;;15.00;13.25;;;;;11.42;63.18;103136.56;4941055;28;45510;-54
2021/12/17 16:22:04;;;;;;;;;17.50;13.75;;;;;11.36;63.63;103129.47;4940852;28;45308;-55
2021/12/17 16:24:29;;;;;;;;;17.75;15.75;;;;;11.20;63.64;103126.06;4941160;28;45418;-54
2021/12/17 16:26:54;;;;;;;;;14.75;12.75;;;;;11.27;63.66;103143.00;4940859;28;45656;-54
2021/12/17 16:29:20;;;;;;;;;16.50;12.75;;;;;11.31;63.98;103152.81;4940803;28;46034;-54
2021/12/17 16:31:47;;;;;;;;;20.50;15.75;;;;;11.31;64.28;103155.50;4940129;28;45431;-54
2021/12/17 16:34:14;;;;;;;;;18.00;15.75;;;;;11.30;64.45;103153.72;4940413;28;45313;-55
2021/12/17 16:36:41;;;;;;;;;22.00;17.00;;;;;11.30;64.60;103153.72;4940728;28;45679;-55
2021/12/17 16:39:10;;;;;;;;;17.00;17.00;;;;;11.27;64.32;103154.63;4940938;28;45332;-54
2021/12/17 16:41:35;;;;;;;;;20.75;15.25;;;;;11.16;64.27;103132.34;4941278;28;45218;-57
2021/12/17 16:44:04;;;;;;;;;20.25;14.75;;;;;11.26;64.34;103146.56;4941070;28;45682;-53
2021/12/17 16:49:06;;;;;;;;;22.50;16.75;;;;;11.23;64.87;103151.97;4941122;28;45481;-55
2021/12/17 16:51:32;;;;;;;;;18.25;16.25;;;;;11.21;64.90;103143.06;4923282;28;45412;-56
2021/12/17 16:53:57;;;;;;;;;17.75;13.75;;;;;11.19;64.59;103144.88;4927943;28;45460;-53
2021/12/17 16:56:24;;;;;;;;;21.75;19.25;;;;;11.22;64.56;103144.84;4941676;28;45192;-58
2021/12/17 16:58:50;;;;;;;;;10.50;4.75;;;;;11.15;65.31;103127.00;4924606;28;47183;-56
2021/12/17 17:01:16;;;;;;;;;17.50;14.00;;;;;11.13;64.81;103135.09;4925020;28;46116;-57
2021/12/17 17:03:44;;;;;;;;;18.75;13.50;;;;;10.83;65.09;103076.34;4942802;28;45444;-57
2021/12/17 17:06:09;;;;;;;;;20.00;15.00;;;;;11.02;65.37;103107.47;4942316;28;45396;-57
2021/12/17 17:08:35;;;;;;;;;17.00;15.75;;;;;11.13;65.40;103131.53;4941415;28;45611;-57
2021/12/17 17:11:03;;;;;;;;;17.50;15.75;;;;;11.14;65.30;103139.56;4941116;28;45291;-57
2021/12/17 17:13:29;;;;;;;;;;;;;;;11.13;65.17;103136.88;4944204;28;45257;-59
2021/12/17 17:15:56;;;;;;;;;17.50;16.50;;;;;11.06;65.42;103127.13;4941924;28;45250;-57
2021/12/17 17:18:22;;;;;;;;;24.50;18.25;;;;;11.10;65.29;103140.47;4939181;28;46690;-59
2021/12/17 17:20:48;;;;;;;;;19.25;16.75;;;;;11.08;65.06;103139.59;4934138;28;45955;-59
2021/12/17 17:23:13;;;;;;;;;11.50;10.25;;;;;10.95;65.57;103119.16;4934018;28;45823;-58
2021/12/17 17:25:39;;;;;;;;;20.50;15.50;;;;;11.14;65.90;103139.56;4933044;28;45823;-56
2021/12/17 17:28:05;;;;;;;;;22.00;17.00;;;;;11.08;65.54;103123.50;4935110;28;46097;-60
2021/12/17 17:30:36;;;;;;;;;22.00;18.50;;;;;11.19;65.72;103136.81;4932958;28;46513;-62
2021/12/17 17:33:03;;;;;;;;;17.25;16.25;;;;;11.10;65.97;103124.38;4934294;28;45559;-62
2021/12/17 17:35:29;;;;;;;;;23.50;19.25;;;;;11.14;65.77;103135.97;4934361;28;45645;-67
2021/12/17 17:37:54;;;;;;;;;20.25;16.50;;;;;11.09;65.67;103136.00;4935564;28;46370;-60
2021/12/17 17:40:19;;;;;;;;;24.75;19.75;;;;;10.96;65.55;103119.16;4931899;28;45596;-57
2021/12/17 17:42:45;;;;;;;;;22.00;16.75;;;;;11.03;66.00;103133.41;4931697;28;46182;-59
2021/12/17 17:45:11;;;;;;;;;18.25;16.50;;;;;11.05;65.94;103144.13;4937331;28;45576;-59
2021/12/17 17:47:45;;;;;;;;;17.75;17.25;;;;;11.02;65.81;103133.41;4940820;28;45528;-60
2021/12/17 17:50:10;;;;;;;;;25.75;21.75;;;;;10.98;65.90;103135.22;4940284;28;45300;-59
2021/12/17 17:52:35;;;;;;;;;23.50;22.00;;;;;10.83;66.33;103113.91;4941130;28;45455;-60
2021/12/17 17:55:01;;;;;;;;;28.00;17.50;;;;;10.97;66.55;103139.69;4959208;22;45560;-60
2021/12/17 17:57:26;;;;;;;;;29.50;22.25;;;;;10.99;66.70;103147.75;4960579;28;45518;-61
2021/12/17 17:59:51;;;;;;;;;17.00;13.00;;;;;10.93;66.46;103137.97;4959339;28;45336;-60
2021/12/17 18:02:17;;;;;;;;;24.00;21.00;;;;;10.96;66.29;103150.47;4951931;28;46487;-59
2021/12/17 18:04:43;;;;;;;;;24.75;19.00;;;;;10.88;66.45;103133.56;4949679;28;45702;-59
2021/12/17 18:07:10;;;;;;;;;30.25;24.25;;;;;10.92;66.67;103149.59;4951378;28;46759;-61
2021/12/17 18:09:40;;;;;;;;;29.00;20.00;;;;;10.92;66.73;103146.03;4966148;23;46472;-60
2021/12/17 18:12:11;;;;;;;;;28.50;24.75;;;;;10.90;66.97;103147.81;4976409;28;45811;-60
2021/12/17 18:14:38;;;;;;;;;29.50;24.50;;;;;10.90;66.65;103153.19;4967902;28;46589;-59
2021/12/17 18:17:07;;;;;;;;;23.75;18.25;;;;;10.88;66.70;103160.38;4978133;28;46694;-58
2021/12/17 18:19:33;;;;;;;;;25.25;18.00;;;;;10.80;67.04;103144.31;4978279;28;45276;-61
2021/12/17 18:21:58;;;;;;;;;22.00;18.25;;;;;10.88;66.91;103163.97;4978548;28;45247;-59